sensor_id;sensor_type;location;lat;lon;timestamp;pressure;altitude;pressure_sealevel;temperature;humidity
18755;BME280;35061;47.664;9.166;2023-02-01T00:01:16;102434.66;;;3.87;72.16
18755;BME280;35061;47.664;9.166;2023-02-01T00:03:44;102433.42;;;3.84;72.10
18755;BME280;35061;47.664;9.166;2023-02-01T00:06:12;102447.22;;;3.86;72.26
18755;BME280;35061;47.664;9.166;2023-02-01T00:08:39;102438.72;;;3.86;72.24
18755;BME280;35061;47.664;9.166;2023-02-01T00:11:09;102435.88;;;3.86;72.26
18755;BME280;35061;47.664;9.166;2023-02-01T00:13:39;102430.21;;;3.86;72.09
18755;BME280;35061;47.664;9.166;2023-02-01T00:16:13;102433.02;;;3.86;71.99
18755;BME280;35061;47.664;9.166;2023-02-01T00:18:45;102423.71;;;3.82;71.83
18755;BME280;35061;47.664;9.166;2023-02-01T00:21:14;102422.10;;;3.81;71.71
18755;BME280;35061;47.664;9.166;2023-02-01T00:23:43;102428.97;;;3.80;71.83
18755;BME280;35061;47.664;9.166;2023-02-01T00:26:25;102425.73;;;3.81;71.78
18755;BME280;35061;47.664;9.166;2023-02-01T00:28:54;102424.13;;;3.80;71.77
18755;BME280;35061;47.664;9.166;2023-02-01T00:31:22;102426.98;;;3.80;71.77
18755;BME280;35061;47.664;9.166;2023-02-01T00:33:53;102418.48;;;3.76;71.71
18755;BME280;35061;47.664;9.166;2023-02-01T00:36:21;102419.69;;;3.75;71.83
18755;BME280;35061;47.664;9.166;2023-02-01T00:38:49;102409.16;;;3.72;71.72
18755;BME280;35061;47.664;9.166;2023-02-01T00:41:19;102410.79;;;3.73;71.77
18755;BME280;35061;47.664;9.166;2023-02-01T00:43:48;102403.89;;;3.71;71.51
18755;BME280;35061;47.664;9.166;2023-02-01T00:46:17;102405.52;;;3.72;71.44
18755;BME280;35061;47.664;9.166;2023-02-01T00:48:45;102404.67;;;3.71;71.65
18755;BME280;35061;47.664;9.166;2023-02-01T00:51:19;102397.84;;;3.72;71.56
18755;BME280;35061;47.664;9.166;2023-02-01T00:53:48;102395.78;;;3.69;71.36
18755;BME280;35061;47.664;9.166;2023-02-01T00:56:16;102392.97;;;3.69;71.23
18755;BME280;35061;47.664;9.166;2023-02-01T00:58:44;102405.92;;;3.70;71.19
18755;BME280;35061;47.664;9.166;2023-02-01T01:01:30;102402.29;;;3.70;71.18
18755;BME280;35061;47.664;9.166;2023-02-01T01:03:59;102404.67;;;3.71;71.14
18755;BME280;35061;47.664;9.166;2023-02-01T01:06:32;102397.41;;;3.70;71.11
18755;BME280;35061;47.664;9.166;2023-02-01T01:09:03;102387.28;;;3.66;70.85
18755;BME280;35061;47.664;9.166;2023-02-01T01:11:34;102384.08;;;3.67;70.83
18755;BME280;35061;47.664;9.166;2023-02-01T01:14:03;102394.18;;;3.68;70.53
18755;BME280;35061;47.664;9.166;2023-02-01T01:16:32;102388.52;;;3.65;70.28
18755;BME280;35061;47.664;9.166;2023-02-01T01:19:01;102395.39;;;3.67;70.48
18755;BME280;35061;47.664;9.166;2023-02-01T01:21:31;102407.16;;;3.62;70.45
18755;BME280;35061;47.664;9.166;2023-02-01T01:23:59;102408.77;;;3.63;70.56
18755;BME280;35061;47.664;9.166;2023-02-01T01:26:28;102413.21;;;3.60;70.67
18755;BME280;35061;47.664;9.166;2023-02-01T01:28:58;102402.29;;;3.59;70.86
18755;BME280;35061;47.664;9.166;2023-02-01T01:31:27;102408.34;;;3.61;70.93
18755;BME280;35061;47.664;9.166;2023-02-01T01:33:57;102409.98;;;3.62;70.89
18755;BME280;35061;47.664;9.166;2023-02-01T01:36:26;102400.26;;;3.59;70.75
18755;BME280;35061;47.664;9.166;2023-02-01T01:38:54;102396.20;;;3.60;70.83
18755;BME280;35061;47.664;9.166;2023-02-01T01:41:25;102393.00;;;3.62;70.68
18755;BME280;35061;47.664;9.166;2023-02-01T01:44:04;102388.95;;;3.63;70.81
18755;BME280;35061;47.664;9.166;2023-02-01T01:46:35;102408.34;;;3.61;70.92
18755;BME280;35061;47.664;9.166;2023-02-01T01:49:15;102400.26;;;3.63;70.71
18755;BME280;35061;47.664;9.166;2023-02-01T01:51:48;102403.50;;;3.61;70.70
18755;BME280;35061;47.664;9.166;2023-02-01T01:54:21;102404.71;;;3.64;70.47
18755;BME280;35061;47.664;9.166;2023-02-01T01:56:55;102391.76;;;3.63;70.32
18755;BME280;35061;47.664;9.166;2023-02-01T01:59:25;102386.49;;;3.65;70.35
18755;BME280;35061;47.664;9.166;2023-02-01T02:01:53;102376.39;;;3.64;70.47
18755;BME280;35061;47.664;9.166;2023-02-01T02:04:22;102380.02;;;3.65;70.63
18755;BME280;35061;47.664;9.166;2023-02-01T02:07:11;102374.33;;;3.65;70.59
18755;BME280;35061;47.664;9.166;2023-02-01T02:09:40;102383.65;;;3.69;70.50
18755;BME280;35061;47.664;9.166;2023-02-01T02:12:23;102367.07;;;3.67;70.44
18755;BME280;35061;47.664;9.166;2023-02-01T02:14:51;102360.98;;;3.65;70.52
18755;BME280;35061;47.664;9.166;2023-02-01T02:17:41;102350.06;;;3.67;70.52
18755;BME280;35061;47.664;9.166;2023-02-01T02:23:39;102338.72;;;3.63;70.32
18755;BME280;35061;47.664;9.166;2023-02-01T02:26:25;102346.83;;;3.65;70.53
18755;BME280;35061;47.664;9.166;2023-02-01T02:32:39;102347.65;;;3.58;70.38
18755;BME280;35061;47.664;9.166;2023-02-01T02:35:40;102364.23;;;3.60;70.39
18755;BME280;35061;47.664;9.166;2023-02-01T02:43:43;102354.94;;;3.59;70.37
18755;BME280;35061;47.664;9.166;2023-02-01T02:46:46;102365.86;;;3.57;70.23
18755;BME280;35061;47.664;9.166;2023-02-01T02:49:55;102363.84;;;3.58;70.41
18755;BME280;35061;47.664;9.166;2023-02-01T02:52:51;102348.46;;;3.52;70.28
18755;BME280;35061;47.664;9.166;2023-02-01T02:55:38;102350.10;;;3.53;70.44
18755;BME280;35061;47.664;9.166;2023-02-01T02:58:08;102339.54;;;3.49;70.44
18755;BME280;35061;47.664;9.166;2023-02-01T03:00:56;102323.38;;;3.46;70.65
18755;BME280;35061;47.664;9.166;2023-02-01T03:03:44;102334.70;;;3.46;70.59
18755;BME280;35061;47.664;9.166;2023-02-01T03:06:32;102341.59;;;3.45;70.58
18755;BME280;35061;47.664;9.166;2023-02-01T03:09:02;102345.26;;;3.46;70.65
18755;BME280;35061;47.664;9.166;2023-02-01T03:11:32;102343.59;;;3.45;70.65
18755;BME280;35061;47.664;9.166;2023-02-01T03:14:21;102335.52;;;3.43;70.59
18755;BME280;35061;47.664;9.166;2023-02-01T03:16:57;102347.68;;;3.40;70.79
18755;BME280;35061;47.664;9.166;2023-02-01T03:19:39;102347.26;;;3.38;70.86
18755;BME280;35061;47.664;9.166;2023-02-01T03:22:13;102345.26;;;3.39;70.83
18755;BME280;35061;47.664;9.166;2023-02-01T03:24:47;102350.10;;;3.34;70.88
18755;BME280;35061;47.664;9.166;2023-02-01T03:27:35;102363.05;;;3.28;71.08
18755;BME280;35061;47.664;9.166;2023-02-01T03:32:40;102363.44;;;3.27;71.38
18755;BME280;35061;47.664;9.166;2023-02-01T03:38:22;102341.99;;;3.18;71.22
18755;BME280;35061;47.664;9.166;2023-02-01T03:41:01;102341.59;;;3.16;71.41
18755;BME280;35061;47.664;9.166;2023-02-01T03:43:34;102335.94;;;3.16;71.40
18755;BME280;35061;47.664;9.166;2023-02-01T03:46:09;102327.05;;;3.11;71.50
18755;BME280;35061;47.664;9.166;2023-02-01T03:48:37;102339.18;;;3.04;71.87
18755;BME280;35061;47.664;9.166;2023-02-01T03:51:08;102350.49;;;3.04;71.80
18755;BME280;35061;47.664;9.166;2023-02-01T03:53:38;102348.07;;;3.02;71.94
18755;BME280;35061;47.664;9.166;2023-02-01T03:56:08;102342.41;;;2.99;72.17
18755;BME280;35061;47.664;9.166;2023-02-01T03:58:39;102333.09;;;2.95;72.66
18755;BME280;35061;47.664;9.166;2023-02-01T04:01:07;102350.49;;;2.89;72.98
18755;BME280;35061;47.664;9.166;2023-02-01T04:03:35;102353.34;;;2.89;72.78
18755;BME280;35061;47.664;9.166;2023-02-01T04:06:02;102352.48;;;2.89;72.97
18755;BME280;35061;47.664;9.166;2023-02-01T04:08:30;102356.54;;;2.84;73.18
18755;BME280;35061;47.664;9.166;2023-02-01T04:10:58;102348.86;;;2.85;73.67
18755;BME280;35061;47.664;9.166;2023-02-01T04:13:26;102366.25;;;2.87;73.30
18755;BME280;35061;47.664;9.166;2023-02-01T04:15:53;102370.70;;;2.88;73.42
18755;BME280;35061;47.664;9.166;2023-02-01T04:18:21;102367.85;;;2.84;73.75
18755;BME280;35061;47.664;9.166;2023-02-01T04:20:50;102375.57;;;2.87;73.64
18755;BME280;35061;47.664;9.166;2023-02-01T04:23:17;102376.75;;;2.86;73.78
18755;BME280;35061;47.664;9.166;2023-02-01T04:25:45;102377.17;;;2.88;73.64
18755;BME280;35061;47.664;9.166;2023-02-01T04:28:13;102383.23;;;2.90;73.59
18755;BME280;35061;47.664;9.166;2023-02-01T04:30:41;102396.56;;;2.90;73.41
18755;BME280;35061;47.664;9.166;2023-02-01T04:33:08;102402.23;;;2.90;73.56
18755;BME280;35061;47.664;9.166;2023-02-01T04:35:36;102399.80;;;2.92;73.52
18755;BME280;35061;47.664;9.166;2023-02-01T04:38:04;102409.91;;;2.97;73.45
18755;BME280;35061;47.664;9.166;2023-02-01T04:40:32;102410.76;;;2.97;73.48
18755;BME280;35061;47.664;9.166;2023-02-01T04:43:00;102416.02;;;2.99;73.42
18755;BME280;35061;47.664;9.166;2023-02-01T04:45:28;102422.46;;;2.99;73.36
18755;BME280;35061;47.664;9.166;2023-02-01T04:47:56;102430.97;;;3.03;73.35
18755;BME280;35061;47.664;9.166;2023-02-01T04:50:24;102423.71;;;3.05;73.30
18755;BME280;35061;47.664;9.166;2023-02-01T04:52:52;102439.86;;;3.05;73.27
18755;BME280;35061;47.664;9.166;2023-02-01T04:55:19;102428.55;;;3.05;73.45
18755;BME280;35061;47.664;9.166;2023-02-01T04:57:47;102440.68;;;3.05;73.36
18755;BME280;35061;47.664;9.166;2023-02-01T05:00:15;102442.31;;;3.06;73.37
18755;BME280;35061;47.664;9.166;2023-02-01T05:02:43;102446.37;;;3.05;73.59
18755;BME280;35061;47.664;9.166;2023-02-01T05:05:11;102444.73;;;3.08;73.37
18755;BME280;35061;47.664;9.166;2023-02-01T05:07:38;102444.73;;;3.08;73.40
18755;BME280;35061;47.664;9.166;2023-02-01T05:10:07;102441.49;;;3.10;73.48
18755;BME280;35061;47.664;9.166;2023-02-01T05:12:35;102425.34;;;3.10;73.54
18755;BME280;35061;47.664;9.166;2023-02-01T05:15:21;102415.63;;;3.11;73.79
18755;BME280;35061;47.664;9.166;2023-02-01T05:17:49;102406.70;;;3.13;73.57
18755;BME280;35061;47.664;9.166;2023-02-01T05:20:16;102405.92;;;3.16;73.77
18755;BME280;35061;47.664;9.166;2023-02-01T05:22:44;102399.05;;;3.17;73.62
18755;BME280;35061;47.664;9.166;2023-02-01T05:25:13;102389.34;;;3.18;73.66
18755;BME280;35061;47.664;9.166;2023-02-01T05:27:41;102375.97;;;3.18;73.67
18755;BME280;35061;47.664;9.166;2023-02-01T05:30:10;102361.02;;;3.21;73.67
18755;BME280;35061;47.664;9.166;2023-02-01T05:32:37;102362.23;;;3.20;73.37
18755;BME280;35061;47.664;9.166;2023-02-01T05:35:05;102368.70;;;3.21;73.43
18755;BME280;35061;47.664;9.166;2023-02-01T05:37:33;102382.47;;;3.19;73.30
18755;BME280;35061;47.664;9.166;2023-02-01T05:40:01;102390.16;;;3.15;73.34
18755;BME280;35061;47.664;9.166;2023-02-01T05:42:29;102397.41;;;3.12;73.32
18755;BME280;35061;47.664;9.166;2023-02-01T05:44:57;102406.73;;;3.09;73.22
18755;BME280;35061;47.664;9.166;2023-02-01T05:47:25;102421.26;;;3.04;73.48
18755;BME280;35061;47.664;9.166;2023-02-01T05:49:52;102422.50;;;3.03;73.50
18755;BME280;35061;47.664;9.166;2023-02-01T05:52:20;102424.10;;;3.04;73.47
18755;BME280;35061;47.664;9.166;2023-02-01T05:54:48;102428.94;;;3.07;73.51
18755;BME280;35061;47.664;9.166;2023-02-01T05:57:16;102428.55;;;3.05;73.46
18755;BME280;35061;47.664;9.166;2023-02-01T05:59:44;102410.76;;;3.01;73.62
18755;BME280;35061;47.664;9.166;2023-02-01T06:02:16;102415.59;;;3.00;73.66
18755;BME280;35061;47.664;9.166;2023-02-01T06:04:44;102405.49;;;3.03;73.61
18755;BME280;35061;47.664;9.166;2023-02-01T06:07:11;102398.23;;;3.02;73.63
18755;BME280;35061;47.664;9.166;2023-02-01T06:09:39;102396.60;;;3.01;73.69
18755;BME280;35061;47.664;9.166;2023-02-01T06:12:07;102395.00;;;3.00;73.78
18755;BME280;35061;47.664;9.166;2023-02-01T06:14:35;102401.05;;;2.98;73.85
18755;BME280;35061;47.664;9.166;2023-02-01T06:17:04;102403.47;;;2.96;73.80
18755;BME280;35061;47.664;9.166;2023-02-01T06:19:33;102393.75;;;2.97;73.87
18755;BME280;35061;47.664;9.166;2023-02-01T06:22:01;102388.49;;;2.96;73.86
18755;BME280;35061;47.664;9.166;2023-02-01T06:24:29;102399.41;;;2.93;74.13
18755;BME280;35061;47.664;9.166;2023-02-01T06:26:56;102397.80;;;2.92;74.04
18755;BME280;35061;47.664;9.166;2023-02-01T06:29:24;102422.04;;;2.93;74.14
18755;BME280;35061;47.664;9.166;2023-02-01T06:31:53;102428.12;;;2.96;74.18
18755;BME280;35061;47.664;9.166;2023-02-01T06:34:21;102442.28;;;2.96;74.26
18755;BME280;35061;47.664;9.166;2023-02-01T06:36:50;102454.41;;;2.96;74.48
18755;BME280;35061;47.664;9.166;2023-02-01T06:39:18;102448.76;;;2.96;74.40
18755;BME280;35061;47.664;9.166;2023-02-01T06:41:49;102447.55;;;2.97;74.29
18755;BME280;35061;47.664;9.166;2023-02-01T06:44:17;102459.25;;;2.99;74.29
18755;BME280;35061;47.664;9.166;2023-02-01T06:46:45;102453.59;;;2.99;74.08
18755;BME280;35061;47.664;9.166;2023-02-01T06:49:13;102462.91;;;3.00;74.09
18755;BME280;35061;47.664;9.166;2023-02-01T06:51:40;102454.45;;;3.03;74.03
18755;BME280;35061;47.664;9.166;2023-02-01T06:54:08;102464.95;;;3.03;73.68
18755;BME280;35061;47.664;9.166;2023-02-01T06:56:36;102464.95;;;3.03;73.81
18755;BME280;35061;47.664;9.166;2023-02-01T06:59:05;102470.60;;;2.99;73.65
18755;BME280;35061;47.664;9.166;2023-02-01T07:01:33;102471.41;;;3.03;73.73
18755;BME280;35061;47.664;9.166;2023-02-01T07:04:02;102477.50;;;3.05;73.57
18755;BME280;35061;47.664;9.166;2023-02-01T07:06:30;102481.16;;;3.13;73.66
18755;BME280;35061;47.664;9.166;2023-02-01T07:08:58;102472.70;;;3.20;74.29
18755;BME280;35061;47.664;9.166;2023-02-01T07:11:27;102469.84;;;3.20;76.07
18755;BME280;35061;47.664;9.166;2023-02-01T07:13:55;102474.36;;;3.51;77.05
18755;BME280;35061;47.664;9.166;2023-02-01T07:16:23;102481.98;;;3.39;75.40
18755;BME280;35061;47.664;9.166;2023-02-01T07:18:52;102488.48;;;3.36;75.98
18755;BME280;35061;47.664;9.166;2023-02-01T07:21:20;102481.16;;;3.28;76.56
18755;BME280;35061;47.664;9.166;2023-02-01T07:23:48;102481.98;;;3.25;76.54
18755;BME280;35061;47.664;9.166;2023-02-01T07:26:16;102482.80;;;3.21;76.38
18755;BME280;35061;47.664;9.166;2023-02-01T07:28:44;102473.87;;;3.12;76.53
18755;BME280;35061;47.664;9.166;2023-02-01T07:31:14;102476.71;;;3.12;76.31
18755;BME280;35061;47.664;9.166;2023-02-01T07:33:49;102465.37;;;3.09;76.55
18755;BME280;35061;47.664;9.166;2023-02-01T07:36:20;102464.13;;;3.06;76.61
18755;BME280;35061;47.664;9.166;2023-02-01T07:38:48;102455.27;;;3.07;76.38
18755;BME280;35061;47.664;9.166;2023-02-01T07:41:16;102462.52;;;3.05;76.67
18755;BME280;35061;47.664;9.166;2023-02-01T07:43:44;102454.45;;;3.00;77.04
18755;BME280;35061;47.664;9.166;2023-02-01T07:46:12;102461.70;;;2.97;77.00
18755;BME280;35061;47.664;9.166;2023-02-01T07:48:42;102449.15;;;2.95;77.23
18755;BME280;35061;47.664;9.166;2023-02-01T07:51:12;102445.91;;;2.92;77.21
18755;BME280;35061;47.664;9.166;2023-02-01T07:53:41;102454.02;;;2.94;77.27
18755;BME280;35061;47.664;9.166;2023-02-01T07:56:14;102453.20;;;2.93;77.46
18755;BME280;35061;47.664;9.166;2023-02-01T07:58:42;102456.84;;;2.90;77.64
18755;BME280;35061;47.664;9.166;2023-02-01T08:01:17;102462.49;;;2.90;77.96
18755;BME280;35061;47.664;9.166;2023-02-01T08:03:49;102450.33;;;2.86;78.12
18755;BME280;35061;47.664;9.166;2023-02-01T08:06:18;102449.54;;;2.86;78.34
18755;BME280;35061;47.664;9.166;2023-02-01T08:08:48;102448.33;;;2.87;78.46
18755;BME280;35061;47.664;9.166;2023-02-01T08:11:17;102435.77;;;2.88;78.50
18755;BME280;35061;47.664;9.166;2023-02-01T08:13:45;102448.33;;;2.90;78.43
18755;BME280;35061;47.664;9.166;2023-02-01T08:16:16;102453.20;;;2.93;78.35
18755;BME280;35061;47.664;9.166;2023-02-01T08:18:44;102468.15;;;2.94;78.93
18755;BME280;35061;47.664;9.166;2023-02-01T08:21:13;102463.30;;;2.95;78.76
18755;BME280;35061;47.664;9.166;2023-02-01T08:23:42;102464.91;;;2.96;78.74
18755;BME280;35061;47.664;9.166;2023-02-01T08:26:12;102464.13;;;3.02;78.88
18755;BME280;35061;47.664;9.166;2023-02-01T08:28:44;102457.26;;;3.03;79.27
18755;BME280;35061;47.664;9.166;2023-02-01T08:31:14;102472.62;;;3.06;79.30
18755;BME280;35061;47.664;9.166;2023-02-01T08:33:44;102463.34;;;3.05;79.42
18755;BME280;35061;47.664;9.166;2023-02-01T08:36:15;102454.41;;;3.07;79.66
18755;BME280;35061;47.664;9.166;2023-02-01T08:38:43;102453.23;;;3.12;79.58
18755;BME280;35061;47.664;9.166;2023-02-01T08:41:14;102454.45;;;3.14;79.69
18755;BME280;35061;47.664;9.166;2023-02-01T08:43:42;102456.90;;;3.19;79.65
18755;BME280;35061;47.664;9.166;2023-02-01T08:46:11;102459.71;;;3.23;79.48
18755;BME280;35061;47.664;9.166;2023-02-01T08:48:39;102451.21;;;3.23;79.93
18755;BME280;35061;47.664;9.166;2023-02-01T08:51:09;102467.00;;;3.28;79.82
18755;BME280;35061;47.664;9.166;2023-02-01T08:53:38;102443.55;;;3.31;79.92
18755;BME280;35061;47.664;9.166;2023-02-01T08:56:10;102462.59;;;3.34;79.92
18755;BME280;35061;47.664;9.166;2023-02-01T08:58:38;102463.38;;;3.38;79.75
18755;BME280;35061;47.664;9.166;2023-02-01T09:01:12;102458.14;;;3.40;79.92
18755;BME280;35061;47.664;9.166;2023-02-01T09:03:40;102469.88;;;3.42;79.81
18755;BME280;35061;47.664;9.166;2023-02-01T09:06:11;102472.73;;;3.42;79.73
18755;BME280;35061;47.664;9.166;2023-02-01T09:08:40;102483.65;;;3.40;80.24
18755;BME280;35061;47.664;9.166;2023-02-01T09:11:12;102482.83;;;3.47;79.78
18755;BME280;35061;47.664;9.166;2023-02-01T09:13:41;102499.84;;;3.47;79.79
18755;BME280;35061;47.664;9.166;2023-02-01T09:16:09;102513.99;;;3.51;79.74
18755;BME280;35061;47.664;9.166;2023-02-01T09:18:37;102511.18;;;3.51;79.81
18755;BME280;35061;47.664;9.166;2023-02-01T09:21:25;102518.83;;;3.46;79.91
18755;BME280;35061;47.664;9.166;2023-02-01T09:23:52;102523.70;;;3.49;79.65
18755;BME280;35061;47.664;9.166;2023-02-01T09:26:20;102527.73;;;3.48;80.20
18755;BME280;35061;47.664;9.166;2023-02-01T09:28:57;102518.44;;;3.48;79.94
18755;BME280;35061;47.664;9.166;2023-02-01T09:31:25;102527.34;;;3.50;79.86
18755;BME280;35061;47.664;9.166;2023-02-01T09:33:53;102516.84;;;3.51;79.84
18755;BME280;35061;47.664;9.166;2023-02-01T09:36:20;102506.30;;;3.51;79.79
18755;BME280;35061;47.664;9.166;2023-02-01T09:38:48;102514.41;;;3.53;79.79
18755;BME280;35061;47.664;9.166;2023-02-01T09:41:51;102512.36;;;3.53;79.74
18755;BME280;35061;47.664;9.166;2023-02-01T09:44:32;102511.15;;;3.58;79.77
18755;BME280;35061;47.664;9.166;2023-02-01T09:47:12;102510.79;;;3.63;79.61
18755;BME280;35061;47.664;9.166;2023-02-01T09:52:31;102494.18;;;3.76;79.12
18755;BME280;35061;47.664;9.166;2023-02-01T09:55:16;102497.41;;;3.82;78.77
18755;BME280;35061;47.664;9.166;2023-02-01T09:57:55;102498.63;;;3.88;78.66
18755;BME280;35061;47.664;9.166;2023-02-01T10:00:29;102511.18;;;3.94;78.26
18755;BME280;35061;47.664;9.166;2023-02-01T10:02:57;102520.11;;;3.96;77.81
18755;BME280;35061;47.664;9.166;2023-02-01T10:08:39;102509.55;;;3.97;77.18
18755;BME280;35061;47.664;9.166;2023-02-01T10:13:58;102501.44;;;4.02;76.96
18755;BME280;35061;47.664;9.166;2023-02-01T10:16:42;102494.57;;;4.07;76.81
18755;BME280;35061;47.664;9.166;2023-02-01T10:22:00;102497.38;;;4.18;76.73
18755;BME280;35061;47.664;9.166;2023-02-01T10:24:51;102497.38;;;4.25;76.66
18755;BME280;35061;47.664;9.166;2023-02-01T10:27:34;102494.96;;;4.27;76.22
18755;BME280;35061;47.664;9.166;2023-02-01T10:30:27;102482.38;;;4.36;75.82
18755;BME280;35061;47.664;9.166;2023-02-01T10:33:30;102482.77;;;4.38;75.78
18755;BME280;35061;47.664;9.166;2023-02-01T10:36:20;102468.57;;;4.41;75.41
18755;BME280;35061;47.664;9.166;2023-02-01T10:38:49;102474.20;;;4.45;75.26
18755;BME280;35061;47.664;9.166;2023-02-01T10:41:21;102463.66;;;4.49;75.06
18755;BME280;35061;47.664;9.166;2023-02-01T10:43:53;102459.61;;;4.50;75.12
18755;BME280;35061;47.664;9.166;2023-02-01T10:46:23;102468.93;;;4.51;75.23
18755;BME280;35061;47.664;9.166;2023-02-01T10:48:55;102474.59;;;4.51;75.66
18755;BME280;35061;47.664;9.166;2023-02-01T10:51:30;102470.53;;;4.59;75.11
18755;BME280;35061;47.664;9.166;2023-02-01T10:54:03;102471.29;;;4.70;75.13
18755;BME280;35061;47.664;9.166;2023-02-01T10:56:38;102483.45;;;4.78;74.35
18755;BME280;35061;47.664;9.166;2023-02-01T10:59:15;102481.39;;;4.82;73.57
18755;BME280;35061;47.664;9.166;2023-02-01T11:01:45;102476.88;;;4.88;73.54
18755;BME280;35061;47.664;9.166;2023-02-01T11:04:16;102476.45;;;4.97;73.34
18755;BME280;35061;47.664;9.166;2023-02-01T11:06:49;102473.51;;;5.12;73.27
18755;BME280;35061;47.664;9.166;2023-02-01T11:09:20;102479.59;;;5.14;71.81
18755;BME280;35061;47.664;9.166;2023-02-01T11:19:56;102464.59;;;5.73;70.31
18755;BME280;35061;47.664;9.166;2023-02-01T11:22:25;102466.48;;;5.84;70.01
18755;BME280;35061;47.664;9.166;2023-02-01T11:24:54;102474.88;;;5.98;69.88
18755;BME280;35061;47.664;9.166;2023-02-01T11:27:24;102447.22;;;6.06;69.10
18755;BME280;35061;47.664;9.166;2023-02-01T11:29:59;102447.64;;;6.05;68.15
18755;BME280;35061;47.664;9.166;2023-02-01T11:32:30;102446.34;;;6.13;68.36
18755;BME280;35061;47.664;9.166;2023-02-01T11:35:06;102444.15;;;6.28;67.91
18755;BME280;35061;47.664;9.166;2023-02-01T11:37:41;102442.45;;;6.34;67.27
18755;BME280;35061;47.664;9.166;2023-02-01T11:45:30;102441.43;;;6.52;66.67
18755;BME280;35061;47.664;9.166;2023-02-01T11:47:59;102443.82;;;6.57;66.21
18755;BME280;35061;47.664;9.166;2023-02-01T11:50:51;102440.05;;;6.64;66.57
18755;BME280;35061;47.664;9.166;2023-02-01T11:53:54;102442.51;;;6.65;65.25
18755;BME280;35061;47.664;9.166;2023-02-01T11:56:37;102455.00;;;6.72;65.49
18755;BME280;35061;47.664;9.166;2023-02-01T11:59:11;102458.73;;;6.68;64.81
18755;BME280;35061;47.664;9.166;2023-02-01T12:21:28;102403.04;;;6.64;64.91
18755;BME280;35061;47.664;9.166;2023-02-01T12:43:04;102345.16;;;6.43;64.46
18755;BME280;35061;47.664;9.166;2023-02-01T12:45:47;102343.13;;;6.44;64.83
18755;BME280;35061;47.664;9.166;2023-02-01T12:48:37;102351.34;;;6.38;63.61
18755;BME280;35061;47.664;9.166;2023-02-01T12:51:15;102350.23;;;6.28;63.77
18755;BME280;35061;47.664;9.166;2023-02-01T12:53:52;102343.36;;;6.25;63.98
18755;BME280;35061;47.664;9.166;2023-02-01T12:56:32;102349.45;;;6.27;64.43
18755;BME280;35061;47.664;9.166;2023-02-01T12:59:19;102312.92;;;6.22;64.25
18755;BME280;35061;47.664;9.166;2023-02-01T13:01:54;102346.77;;;6.13;64.63
18755;BME280;35061;47.664;9.166;2023-02-01T13:04:32;102357.78;;;6.11;64.86
18755;BME280;35061;47.664;9.166;2023-02-01T13:07:07;102342.38;;;6.05;65.16
18755;BME280;35061;47.664;9.166;2023-02-01T13:09:51;102347.32;;;5.97;65.15
18755;BME280;35061;47.664;9.166;2023-02-01T13:15:31;102327.57;;;5.86;65.57
18755;BME280;35061;47.664;9.166;2023-02-01T13:18:03;102335.32;;;5.82;65.60
18755;BME280;35061;47.664;9.166;2023-02-01T13:23:29;102328.91;;;5.74;66.53
18755;BME280;35061;47.664;9.166;2023-02-01T13:25:58;102323.68;;;5.69;68.08
18755;BME280;35061;47.664;9.166;2023-02-01T13:28:40;102334.73;;;5.63;68.72
18755;BME280;35061;47.664;9.166;2023-02-01T13:31:39;102326.26;;;5.56;69.07
18755;BME280;35061;47.664;9.166;2023-02-01T13:40:09;102336.95;;;5.41;66.63
18755;BME280;35061;47.664;9.166;2023-02-01T13:42:55;102315.11;;;5.34;65.29
18755;BME280;35061;47.664;9.166;2023-02-01T13:45:27;102325.21;;;5.39;64.38
18755;BME280;35061;47.664;9.166;2023-02-01T13:47:59;102325.61;;;5.37;63.99
18755;BME280;35061;47.664;9.166;2023-02-01T13:50:41;102332.90;;;5.38;63.70
18755;BME280;35061;47.664;9.166;2023-02-01T13:55:55;102329.66;;;5.40;63.19
18755;BME280;35061;47.664;9.166;2023-02-01T13:58:35;102338.59;;;5.38;62.12
18755;BME280;35061;47.664;9.166;2023-02-01T14:03:51;102330.84;;;5.42;62.21
18755;BME280;35061;47.664;9.166;2023-02-01T14:11:41;102332.51;;;5.40;62.33
18755;BME280;35061;47.664;9.166;2023-02-01T14:14:37;102349.94;;;5.38;62.74
18755;BME280;35061;47.664;9.166;2023-02-01T14:19:30;102344.34;;;5.31;62.88
18755;BME280;35061;47.664;9.166;2023-02-01T14:22:01;102367.46;;;5.33;62.98
18755;BME280;35061;47.664;9.166;2023-02-01T14:24:51;102336.23;;;5.29;62.75
18755;BME280;35061;47.664;9.166;2023-02-01T14:27:24;102352.03;;;5.34;62.90
18755;BME280;35061;47.664;9.166;2023-02-01T14:30:06;102367.85;;;5.31;61.82
18755;BME280;35061;47.664;9.166;2023-02-01T14:32:37;102365.37;;;5.37;61.96
18755;BME280;35061;47.664;9.166;2023-02-01T14:35:16;102364.62;;;5.33;60.80
18755;BME280;35061;47.664;9.166;2023-02-01T14:37:46;102391.37;;;5.36;60.46
18755;BME280;35061;47.664;9.166;2023-02-01T14:40:23;102355.66;;;5.35;60.27
18755;BME280;35061;47.664;9.166;2023-02-01T14:42:53;102374.33;;;5.36;60.56
18755;BME280;35061;47.664;9.166;2023-02-01T14:50:36;102367.04;;;5.35;60.18
18755;BME280;35061;47.664;9.166;2023-02-01T14:53:17;102365.01;;;5.35;59.98
18755;BME280;35061;47.664;9.166;2023-02-01T14:56:09;102368.64;;;5.36;59.91
18755;BME280;35061;47.664;9.166;2023-02-01T14:58:45;102359.35;;;5.31;59.76
18755;BME280;35061;47.664;9.166;2023-02-01T15:01:35;102357.69;;;5.38;60.11
18755;BME280;35061;47.664;9.166;2023-02-01T15:04:13;102364.16;;;5.38;60.40
18755;BME280;35061;47.664;9.166;2023-02-01T15:06:50;102345.13;;;5.35;60.14
18755;BME280;35061;47.664;9.166;2023-02-01T15:09:20;102356.09;;;5.37;60.31
18755;BME280;35061;47.664;9.166;2023-02-01T15:14:22;102351.60;;;5.36;60.09
18755;BME280;35061;47.664;9.166;2023-02-01T15:16:50;102347.94;;;5.39;60.55
18755;BME280;35061;47.664;9.166;2023-02-01T15:19:25;102359.71;;;5.37;60.55
18755;BME280;35061;47.664;9.166;2023-02-01T15:21:56;102356.87;;;5.37;60.38
18755;BME280;35061;47.664;9.166;2023-02-01T15:24:29;102356.48;;;5.35;60.43